KDAY Airport Diagram

We have created a template for each of the higher traffic airports in the vZID airspace. They include KCMH, KCRW, KCVG, KDAY, KIND, KLEX and KSDF. You wil find usefull information including the airport diagram, weather, and specific airport procedures.

KDAY Weather

[Source: ADDS]
METAR
KDAY 251956Z 25021G28KT 10SM SCT065 SCT120 BKN250 31/16 A3002 RMK AO2 PK WND 23032/1945 SLP155 T03060161 =
KDAY 251957Z 2520/2618 24015G25KT P6SM VCTS BKN040CB FM252015 31015G25KT 5SM -SHRA VCTS OVC040CB FM252200 24012KT P6SM VCSH SCT040 BKN100 FM260100 24008KT P6SM BKN250 FM261000 24008KT P6SM VCTS BKN060CB FM261400 25010KT P6SM -SHRA VCTS BKN050CB
TAF
KDAY 251957Z 2520/2618 24015G25KT P6SM VCTS BKN040CB FM252015 31015G25KT 5SM -SHRA VCTS OVC040CB FM252200 24012KT P6SM VCSH SCT040 BKN100 FM260100 24008KT P6SM BKN250 FM261000 24008KT P6SM VCTS BKN060CB FM261400 25010KT P6SM -SHRA VCTS BKN050CB =

KDAY Operations

Approach/Departure operations for KDAY were consolidated into the Columbus TRACON quite some time back. We have recently made that change here at ZID. When arriving/departing the Dayton Airport and airports in the surrounding area, contact with the Columbus APP/DEP controller, if online, should be expected.

Calm Wind Configuration is runways 24L/R. This configuration is used up to and including 10kts.

Runway 24L typically departs south and east, except larger aircraft requiring a longer runway.

Runway 24R typically departs north and west.

 

JSN Epic template designed by JoomlaShine.com